createdAt,value
2022-08-14T00:02:24.462Z,17.65
2022-08-14T00:07:14.751Z,18.85
2022-08-14T00:12:00.397Z,18.80
2022-08-14T00:16:45.636Z,19.30
2022-08-14T00:21:33.736Z,22.33
2022-08-14T00:26:23.272Z,28.75
2022-08-14T00:31:09.897Z,24.10
2022-08-14T00:36:36.780Z,21.00
2022-08-14T00:41:03.213Z,21.30
2022-08-14T00:45:51.652Z,19.42
2022-08-14T00:50:38.248Z,19.38
2022-08-14T00:55:24.237Z,21.52
2022-08-14T01:00:34.290Z,20.15
2022-08-14T01:05:26.503Z,21.92
2022-08-14T01:10:48.799Z,21.05
2022-08-14T01:15:58.601Z,20.80
2022-08-14T01:20:54.664Z,22.33
2022-08-14T01:25:46.088Z,22.85
2022-08-14T01:30:36.582Z,20.88
2022-08-14T01:36:03.461Z,22.90
2022-08-14T01:40:40.802Z,22.88
2022-08-14T01:45:29.533Z,22.40
2022-08-14T01:50:26.609Z,23.65
2022-08-14T01:55:14.255Z,22.75
2022-08-14T02:00:00.114Z,22.27
2022-08-14T02:04:56.090Z,21.98
2022-08-14T02:09:45.279Z,24.00
2022-08-14T02:14:59.016Z,22.88
2022-08-14T02:19:46.231Z,22.80
2022-08-14T02:24:38.703Z,21.85
2022-08-14T02:30:00.267Z,22.88
2022-08-14T02:34:36.678Z,22.55
2022-08-14T02:39:23.035Z,20.85
2022-08-14T02:44:13.949Z,21.05
2022-08-14T02:49:05.553Z,22.08
2022-08-14T02:53:52.834Z,23.20
2022-08-14T02:58:41.772Z,23.00
2022-08-14T03:03:31.991Z,22.52
2022-08-14T03:08:26.014Z,23.08
2022-08-14T03:13:19.192Z,22.50
2022-08-14T03:18:06.107Z,21.92
2022-08-14T03:22:54.410Z,24.08
2022-08-14T03:27:48.616Z,23.45
2022-08-14T03:32:44.786Z,23.83
2022-08-14T03:39:10.522Z,22.83
2022-08-14T03:42:39.717Z,22.48
2022-08-14T03:47:46.183Z,21.17
2022-08-14T03:52:38.946Z,19.83
2022-08-14T03:57:40.524Z,20.67
2022-08-14T04:02:32.674Z,19.83
2022-08-14T04:07:22.639Z,20.88
2022-08-14T04:12:08.471Z,21.13
2022-08-14T04:17:01.559Z,20.55
2022-08-14T04:22:02.154Z,20.25
2022-08-14T04:26:49.616Z,21.88
2022-08-14T04:32:58.270Z,21.58
2022-08-14T04:37:03.035Z,21.60
2022-08-14T04:42:09.209Z,21.40
2022-08-14T04:47:11.791Z,21.63
2022-08-14T04:51:59.896Z,20.80
2022-08-14T04:56:48.365Z,18.42
2022-08-14T05:01:40.193Z,17.05
2022-08-14T05:11:26.894Z,16.23
2022-08-14T05:16:13.496Z,15.07
2022-08-14T05:21:57.842Z,15.45
2022-08-14T05:26:13.301Z,15.50
2022-08-14T05:31:03.949Z,16.25
2022-08-14T05:35:51.126Z,15.07
2022-08-14T05:40:36.631Z,15.73
2022-08-14T05:45:22.559Z,14.48
2022-08-14T05:50:17.226Z,15.02
2022-08-14T05:55:04.731Z,14.38
2022-08-14T05:59:49.971Z,14.10
2022-08-14T06:04:36.816Z,13.18
2022-08-14T06:09:24.765Z,13.50
2022-08-14T06:14:20.973Z,13.15
2022-08-14T06:19:06.983Z,12.43
2022-08-14T06:23:56.831Z,12.27
2022-08-14T06:28:47.237Z,11.88
2022-08-14T06:35:09.738Z,11.00
2022-08-14T06:38:38.277Z,11.57
2022-08-14T06:43:28.391Z,11.32
2022-08-14T06:48:23.847Z,11.55
2022-08-14T06:53:09.004Z,12.25
2022-08-14T06:57:55.237Z,12.02
2022-08-14T07:02:53.085Z,10.98
2022-08-14T07:07:44.284Z,10.93
2022-08-14T07:12:54.582Z,11.07
2022-08-14T07:17:36.440Z,11.32
2022-08-14T07:22:21.972Z,10.48
2022-08-14T07:27:10.018Z,12.40
2022-08-14T07:31:57.767Z,11.98
2022-08-14T07:36:58.234Z,12.57
2022-08-14T07:41:46.761Z,11.90
2022-08-14T07:46:36.232Z,11.45
2022-08-14T07:51:23.308Z,10.73
2022-08-14T07:56:44.087Z,10.68
2022-08-14T08:01:16.782Z,9.85
2022-08-14T08:06:10.487Z,10.65
2022-08-14T08:11:08.427Z,10.23
2022-08-14T08:16:00.911Z,11.40
2022-08-14T08:20:52.127Z,10.13
2022-08-14T08:25:43.265Z,9.77
2022-08-14T08:30:29.334Z,10.68
2022-08-14T08:35:21.288Z,9.48
2022-08-14T08:40:07.588Z,10.05
2022-08-14T08:44:59.682Z,9.18
2022-08-14T08:49:52.793Z,9.95
2022-08-14T08:54:55.605Z,8.93
2022-08-14T08:59:42.168Z,8.00
2022-08-14T09:04:31.349Z,7.85
2022-08-14T09:09:30.531Z,7.72
2022-08-14T09:14:19.710Z,7.75
2022-08-14T09:19:06.437Z,8.10
2022-08-14T09:24:29.098Z,8.00
2022-08-14T09:29:01.005Z,8.25
2022-08-14T09:34:01.084Z,6.82
2022-08-14T09:39:23.447Z,7.40
2022-08-14T09:44:20.896Z,7.82
2022-08-14T09:49:12.121Z,9.48
2022-08-14T09:54:18.256Z,10.60
2022-08-14T09:59:16.782Z,6.63
2022-08-14T10:04:01.883Z,6.22
2022-08-14T10:08:51.595Z,5.60
2022-08-14T10:13:52.831Z,5.40
2022-08-14T10:18:39.942Z,5.53
2022-08-14T10:23:33.781Z,5.35
2022-08-14T10:28:39.016Z,4.53
2022-08-14T10:33:32.962Z,4.88
2022-08-14T10:38:28.635Z,4.72
2022-08-14T10:43:26.443Z,4.65
2022-08-14T10:48:24.422Z,4.80
2022-08-14T10:53:39.870Z,4.53
2022-08-14T10:58:34.433Z,5.10
2022-08-14T11:03:26.469Z,4.10
2022-08-14T11:08:14.556Z,4.82
2022-08-14T11:13:02.261Z,4.38
2022-08-14T11:17:50.905Z,4.00
2022-08-14T11:23:03.429Z,4.18
2022-08-14T11:27:43.928Z,4.20
2022-08-14T11:32:32.342Z,4.18
2022-08-14T11:37:24.665Z,3.80
2022-08-14T11:42:56.215Z,4.18
2022-08-14T11:47:43.893Z,4.50
2022-08-14T11:52:40.196Z,4.63
2022-08-14T11:57:25.605Z,4.18
2022-08-14T12:02:38.815Z,4.45
2022-08-14T12:07:23.826Z,4.10
2022-08-14T12:12:36.165Z,3.97
2022-08-14T12:17:24.199Z,4.55
2022-08-14T12:22:09.330Z,4.63
2022-08-14T12:27:00.504Z,4.38
2022-08-14T12:31:51.494Z,5.00
2022-08-14T12:36:38.216Z,4.60
2022-08-14T12:41:28.214Z,3.78
2022-08-14T12:46:30.982Z,3.92
2022-08-14T12:51:21.581Z,3.38
2022-08-14T13:01:17.044Z,9.00
2022-08-14T13:06:09.027Z,4.03
2022-08-14T13:10:58.293Z,4.13
2022-08-14T13:15:56.053Z,3.95
2022-08-14T13:20:51.217Z,4.00
2022-08-14T13:25:55.983Z,3.78
2022-08-14T13:30:43.550Z,3.70
2022-08-14T13:35:29.853Z,3.35
2022-08-14T13:40:15.662Z,4.78
2022-08-14T13:45:07.413Z,3.78
2022-08-14T13:49:57.162Z,5.65
2022-08-14T13:54:50.081Z,3.95
2022-08-14T13:59:45.655Z,3.03
2022-08-14T14:04:34.516Z,3.10
2022-08-14T14:09:37.531Z,2.95
2022-08-14T14:14:51.266Z,2.75
2022-08-14T14:19:38.727Z,2.85
2022-08-14T14:24:26.499Z,3.08
2022-08-14T14:29:24.078Z,3.40
2022-08-14T14:34:30.074Z,3.65
2022-08-14T14:39:21.239Z,3.30
2022-08-14T14:44:09.523Z,3.95
2022-08-14T14:48:59.366Z,3.30
2022-08-14T14:53:47.135Z,3.35
2022-08-14T14:58:35.160Z,5.07
2022-08-14T15:03:20.285Z,3.63
2022-08-14T15:08:05.920Z,4.00
2022-08-14T15:12:57.510Z,3.83
2022-08-14T15:17:47.923Z,7.28
2022-08-14T15:22:40.100Z,3.88
2022-08-14T15:27:29.803Z,3.50
2022-08-14T15:32:14.913Z,3.67
2022-08-14T15:37:06.187Z,3.30
2022-08-14T15:42:02.101Z,3.53
2022-08-14T15:46:48.283Z,3.72
2022-08-14T15:51:35.146Z,3.90
2022-08-14T15:56:33.038Z,4.20
2022-08-14T16:06:34.523Z,3.70
2022-08-14T16:11:20.325Z,4.20
2022-08-14T16:16:34.412Z,3.65
2022-08-14T16:21:15.967Z,8.05
2022-08-14T16:26:02.171Z,3.40
2022-08-14T16:30:52.648Z,11.48
2022-08-14T16:35:42.331Z,3.80
2022-08-14T16:40:43.735Z,4.28
2022-08-14T16:45:30.065Z,3.78
2022-08-14T16:50:40.650Z,3.88
2022-08-14T16:55:30.003Z,3.92
2022-08-14T17:00:28.925Z,4.00
2022-08-14T17:05:24.560Z,4.20
2022-08-14T17:10:12.481Z,4.55
2022-08-14T17:15:09.751Z,3.97
2022-08-14T17:20:34.022Z,4.18
2022-08-14T17:25:10.434Z,4.38
2022-08-14T17:29:57.585Z,4.18
2022-08-14T17:34:51.200Z,3.72
2022-08-14T17:39:39.769Z,3.90
2022-08-14T17:44:33.495Z,4.10
2022-08-14T17:49:23.812Z,4.05
2022-08-14T17:54:11.855Z,4.88
2022-08-14T17:58:57.853Z,4.65
2022-08-14T18:03:50.550Z,4.45
2022-08-14T18:08:41.117Z,5.13
2022-08-14T18:13:50.874Z,4.35
2022-08-14T18:18:37.228Z,5.32
2022-08-14T18:23:22.439Z,6.90
2022-08-14T18:28:15.953Z,4.60
2022-08-14T18:33:17.678Z,4.93
2022-08-14T18:38:26.172Z,5.80
2022-08-14T18:43:59.306Z,5.50
2022-08-14T18:48:50.920Z,5.40
2022-08-14T18:53:59.458Z,6.53
2022-08-14T18:58:57.354Z,5.85
2022-08-14T19:03:55.451Z,6.07
2022-08-14T19:08:40.894Z,5.70
2022-08-14T19:13:48.478Z,5.40
2022-08-14T19:18:38.695Z,5.50
2022-08-14T19:23:42.397Z,5.93
2022-08-14T19:28:32.335Z,6.10
2022-08-14T19:33:52.728Z,5.43
2022-08-14T19:38:59.395Z,5.25
2022-08-14T19:43:55.237Z,5.82
2022-08-14T19:48:44.094Z,6.05
2022-08-14T19:53:56.432Z,6.05
2022-08-14T19:58:54.431Z,5.60
2022-08-14T20:03:59.924Z,6.70
2022-08-14T20:11:00.193Z,6.78
2022-08-14T20:14:09.361Z,5.80
2022-08-14T20:18:55.930Z,6.78
2022-08-14T20:23:44.279Z,6.93
2022-08-14T20:28:35.683Z,7.00
2022-08-14T20:33:27.680Z,7.00
2022-08-14T20:38:29.265Z,7.50
2022-08-14T20:43:35.355Z,7.05
2022-08-14T20:48:52.255Z,6.82
2022-08-14T20:53:38.970Z,7.75
2022-08-14T20:58:44.183Z,13.80
2022-08-14T21:03:57.229Z,9.90
2022-08-14T21:08:44.880Z,8.55
2022-08-14T21:14:20.603Z,8.18
2022-08-14T21:18:47.616Z,8.35
2022-08-14T21:23:33.247Z,8.40
2022-08-14T21:28:29.731Z,12.45
2022-08-14T21:33:21.577Z,41.50
2022-08-14T21:38:18.174Z,9.50
2022-08-14T21:43:04.910Z,34.00
2022-08-14T21:47:50.793Z,11.93
2022-08-14T21:52:51.527Z,10.40
2022-08-14T21:58:45.959Z,9.43
2022-08-14T22:02:55.635Z,13.88
2022-08-14T22:07:41.881Z,9.45
2022-08-14T22:12:58.332Z,15.43
2022-08-14T22:17:36.991Z,8.65
2022-08-14T22:22:30.178Z,8.38
2022-08-14T22:27:18.788Z,8.70
2022-08-14T22:32:08.409Z,8.38
2022-08-14T22:36:56.357Z,10.65
2022-08-14T22:41:43.597Z,7.97
2022-08-14T22:46:43.348Z,8.73
2022-08-14T22:51:29.045Z,8.68
2022-08-14T22:56:20.255Z,8.90
2022-08-14T23:05:57.424Z,9.15
2022-08-14T23:10:44.528Z,9.73
2022-08-14T23:15:37.646Z,9.70
2022-08-14T23:20:29.512Z,10.48
2022-08-14T23:25:20.132Z,10.45
2022-08-14T23:30:33.927Z,10.57
2022-08-14T23:35:27.337Z,10.15
2022-08-14T23:40:26.387Z,11.02
2022-08-14T23:50:04.131Z,10.15
2022-08-14T23:54:56.014Z,10.35
2022-08-14T23:59:54.674Z,10.75
